createdAt,value
2023-02-22T00:00:31.600Z,11.58
2023-02-22T00:03:56.921Z,11.55
2023-02-22T00:07:22.217Z,11.49
2023-02-22T00:10:47.568Z,11.43
2023-02-22T00:14:12.824Z,11.41
2023-02-22T00:17:38.127Z,11.4
2023-02-22T00:21:03.442Z,11.4
2023-02-22T00:24:28.756Z,11.38
2023-02-22T00:27:54.087Z,11.34
2023-02-22T00:31:19.876Z,11.3
2023-02-22T00:34:44.707Z,11.28
2023-02-22T00:38:10.029Z,11.3
2023-02-22T00:41:35.356Z,11.33
2023-02-22T00:45:00.597Z,11.33
2023-02-22T00:48:25.928Z,11.33
2023-02-22T00:51:51.222Z,11.36
2023-02-22T00:55:16.577Z,11.37
2023-02-22T00:58:41.881Z,11.37
2023-02-22T01:02:07.212Z,11.36
2023-02-22T01:05:32.480Z,11.38
2023-02-22T01:08:58.458Z,11.38
2023-02-22T01:12:24.646Z,11.39
2023-02-22T01:15:50.545Z,11.4
2023-02-22T01:19:15.875Z,11.41
2023-02-22T01:22:41.174Z,11.42
2023-02-22T01:26:06.500Z,11.41
2023-02-22T01:29:31.856Z,11.39
2023-02-22T01:32:57.164Z,11.38
2023-02-22T01:36:22.517Z,11.35
2023-02-22T01:39:47.843Z,11.34
2023-02-22T01:43:13.146Z,11.33
2023-02-22T01:46:38.444Z,11.29
2023-02-22T01:50:03.749Z,11.24
2023-02-22T01:53:29.113Z,11.2
2023-02-22T01:56:54.437Z,11.15
2023-02-22T02:00:19.761Z,11.1
2023-02-22T02:03:45.086Z,11.08
2023-02-22T02:07:10.398Z,11.09
2023-02-22T02:10:35.727Z,11.1
2023-02-22T02:14:01.012Z,11.1
2023-02-22T02:17:26.332Z,11.14
2023-02-22T02:20:51.637Z,11.15
2023-02-22T02:24:16.940Z,11.15
2023-02-22T02:27:42.260Z,11.19
2023-02-22T02:31:07.549Z,11.21
2023-02-22T02:34:32.857Z,11.22
2023-02-22T02:37:58.126Z,11.23
2023-02-22T02:41:23.461Z,11.25
2023-02-22T02:44:48.771Z,11.24
2023-02-22T02:48:14.029Z,11.24
2023-02-22T02:51:39.351Z,11.25
2023-02-22T02:55:04.713Z,11.2
2023-02-22T02:58:29.984Z,11.17
2023-02-22T03:01:55.355Z,11.16
2023-02-22T03:05:20.615Z,11.17
2023-02-22T03:08:45.931Z,11.16
2023-02-22T03:12:11.261Z,11.12
2023-02-22T03:15:36.590Z,11.05
2023-02-22T03:19:01.898Z,10.97
2023-02-22T03:22:27.188Z,10.88
2023-02-22T03:25:52.501Z,10.84
2023-02-22T03:29:17.817Z,10.83
2023-02-22T03:32:43.115Z,10.8
2023-02-22T03:36:08.495Z,10.78
2023-02-22T03:39:33.777Z,10.77
2023-02-22T03:42:59.113Z,10.75
2023-02-22T03:46:24.456Z,10.73
2023-02-22T03:49:49.720Z,10.73
2023-02-22T03:53:15.080Z,10.74
2023-02-22T03:56:40.380Z,10.73
2023-02-22T04:00:05.718Z,10.72
2023-02-22T04:03:31.070Z,10.69
2023-02-22T04:06:56.397Z,10.65
2023-02-22T04:10:21.717Z,10.61
2023-02-22T04:13:47.012Z,10.57
2023-02-22T04:17:12.339Z,10.55
2023-02-22T04:20:37.650Z,10.56
2023-02-22T04:24:02.959Z,10.61
2023-02-22T04:27:28.261Z,10.6
2023-02-22T04:30:53.550Z,10.6
2023-02-22T04:34:21.245Z,10.61
2023-02-22T04:37:47.930Z,10.63
2023-02-22T04:41:13.220Z,10.61
2023-02-22T04:44:38.546Z,10.6
2023-02-22T04:48:03.842Z,10.6
2023-02-22T04:51:29.131Z,10.61
2023-02-22T04:54:54.390Z,10.61
2023-02-22T04:58:19.682Z,10.61
2023-02-22T05:01:44.998Z,10.59
2023-02-22T05:05:10.228Z,10.61
2023-02-22T05:08:35.459Z,10.62
2023-02-22T05:12:00.746Z,10.59
2023-02-22T05:15:25.969Z,10.58
2023-02-22T05:18:51.301Z,10.57
2023-02-22T05:22:16.633Z,10.54
2023-02-22T05:25:41.912Z,10.48
2023-02-22T05:29:07.186Z,10.42
2023-02-22T05:32:32.540Z,10.41
2023-02-22T05:35:57.901Z,10.36
2023-02-22T05:39:23.186Z,10.33
2023-02-22T05:42:49.093Z,10.25
2023-02-22T05:46:13.818Z,10.25
2023-02-22T05:49:39.129Z,10.24
2023-02-22T05:53:04.448Z,10.23
2023-02-22T05:56:29.755Z,10.27
2023-02-22T05:59:55.090Z,10.29
2023-02-22T06:03:20.450Z,10.31
2023-02-22T06:06:45.765Z,10.33
2023-02-22T06:10:11.111Z,10.32
2023-02-22T06:13:36.415Z,10.24
2023-02-22T06:17:01.718Z,10.16
2023-02-22T06:20:27.096Z,10.06
2023-02-22T06:23:52.412Z,10
2023-02-22T06:27:17.736Z,9.93
2023-02-22T06:30:43.186Z,9.87
2023-02-22T06:34:08.365Z,9.82
2023-02-22T06:37:33.656Z,9.79
2023-02-22T06:40:58.985Z,9.77
2023-02-22T06:44:24.322Z,9.75
2023-02-22T06:47:49.559Z,9.74
2023-02-22T06:51:15.182Z,9.72
2023-02-22T06:54:40.258Z,9.69
2023-02-22T06:58:05.641Z,9.65
2023-02-22T07:01:30.952Z,9.64
2023-02-22T07:04:56.202Z,9.63
2023-02-22T07:08:21.483Z,9.61
2023-02-22T07:11:46.733Z,9.58
2023-02-22T07:15:12.017Z,9.58
2023-02-22T07:18:37.316Z,9.57
2023-02-22T07:22:02.854Z,9.58
2023-02-22T07:25:29.432Z,9.57
2023-02-22T07:28:54.695Z,9.61
2023-02-22T07:32:20.071Z,9.74
2023-02-22T07:35:45.302Z,9.91
2023-02-22T07:39:10.613Z,10.08
2023-02-22T07:42:36.158Z,10.22
2023-02-22T07:46:01.452Z,10.33
2023-02-22T07:49:26.692Z,10.42
2023-02-22T07:52:53.031Z,10.5
2023-02-22T07:56:18.291Z,10.62
2023-02-22T07:59:43.563Z,10.73
2023-02-22T08:03:08.822Z,10.8
2023-02-22T08:06:34.095Z,10.84
2023-02-22T08:09:59.378Z,10.87
2023-02-22T08:13:24.672Z,10.93
2023-02-22T08:16:49.941Z,10.98
2023-02-22T08:20:15.214Z,11.05
2023-02-22T08:23:40.484Z,11.12
2023-02-22T08:27:05.766Z,11.13
2023-02-22T08:30:31.081Z,11.15
2023-02-22T08:33:56.262Z,11.22
2023-02-22T08:37:21.604Z,11.26
2023-02-22T08:40:46.882Z,11.32
2023-02-22T08:44:12.155Z,11.42
2023-02-22T08:47:37.375Z,11.51
2023-02-22T08:51:02.664Z,11.62
2023-02-22T08:54:27.906Z,11.7
2023-02-22T08:57:53.181Z,11.8
2023-02-22T09:01:24.862Z,11.88
2023-02-22T09:04:43.776Z,11.99
2023-02-22T09:08:09.052Z,12.07
2023-02-22T09:11:34.310Z,12.19
2023-02-22T09:14:59.551Z,12.29
2023-02-22T09:18:26.954Z,12.4
2023-02-22T09:21:50.033Z,12.57
2023-02-22T09:25:17.192Z,12.65
2023-02-22T09:28:40.537Z,12.73
2023-02-22T09:32:05.980Z,12.73
2023-02-22T09:35:31.114Z,12.81
2023-02-22T09:38:56.327Z,12.92
2023-02-22T09:42:21.559Z,13.05
2023-02-22T09:45:46.847Z,13.17
2023-02-22T09:49:12.143Z,13.21
2023-02-22T09:52:37.434Z,13.24
2023-02-22T09:56:02.678Z,13.29
2023-02-22T09:59:27.925Z,13.35
2023-02-22T10:02:53.186Z,13.37
2023-02-22T10:06:18.763Z,13.46
2023-02-22T10:09:43.733Z,13.57
2023-02-22T10:13:08.938Z,13.63
2023-02-22T10:16:34.259Z,13.68
2023-02-22T10:19:59.434Z,13.73
2023-02-22T10:23:24.692Z,13.8
2023-02-22T10:26:49.981Z,13.88
2023-02-22T10:30:24.008Z,13.95
2023-02-22T10:33:40.430Z,14.01
2023-02-22T10:37:05.699Z,14.08
2023-02-22T10:40:30.965Z,14.11
2023-02-22T10:43:56.254Z,14.1
2023-02-22T10:47:22.055Z,14.16
2023-02-22T10:50:46.740Z,14.23
2023-02-22T10:54:12.007Z,14.29
2023-02-22T10:57:37.257Z,14.36
2023-02-22T11:01:02.727Z,14.4
2023-02-22T11:04:27.782Z,14.41
2023-02-22T11:07:53.057Z,14.44
2023-02-22T11:11:18.584Z,14.46
2023-02-22T11:14:43.642Z,14.45
2023-02-22T11:18:08.994Z,14.48
2023-02-22T11:21:34.161Z,14.51
2023-02-22T11:24:59.406Z,14.55
2023-02-22T11:28:24.685Z,14.61
2023-02-22T11:31:50.131Z,14.7
2023-02-22T11:35:15.220Z,14.82
2023-02-22T11:38:40.480Z,14.91
2023-02-22T11:42:05.765Z,15
2023-02-22T11:45:31.018Z,15.09
2023-02-22T11:48:56.290Z,15.19
2023-02-22T11:52:21.642Z,15.27
2023-02-22T11:55:46.828Z,15.37
2023-02-22T11:59:12.091Z,15.44
2023-02-22T12:02:38.592Z,15.49
2023-02-22T12:06:02.694Z,15.52
2023-02-22T12:09:27.989Z,15.51
2023-02-22T12:12:53.181Z,15.52
2023-02-22T12:16:18.741Z,15.53
2023-02-22T12:19:43.712Z,15.58
2023-02-22T12:23:09.001Z,15.62
2023-02-22T12:26:34.341Z,15.6
2023-02-22T12:29:59.599Z,15.63
2023-02-22T12:33:24.855Z,15.67
2023-02-22T12:36:50.114Z,15.67
2023-02-22T12:40:15.368Z,15.66
2023-02-22T12:43:40.699Z,15.63
2023-02-22T12:47:05.895Z,15.64
2023-02-22T12:50:31.173Z,15.62
2023-02-22T12:53:56.455Z,15.61
2023-02-22T12:57:21.834Z,15.66
2023-02-22T13:00:47.180Z,15.7
2023-02-22T13:04:20.360Z,15.71
2023-02-22T13:07:37.881Z,15.71
2023-02-22T13:11:03.221Z,15.71
2023-02-22T13:14:28.603Z,15.71
2023-02-22T13:17:54.012Z,15.67
2023-02-22T13:21:19.432Z,15.65
2023-02-22T13:24:44.635Z,15.68
2023-02-22T13:28:09.982Z,15.68
2023-02-22T13:31:36.829Z,15.71
2023-02-22T13:35:00.679Z,15.72
2023-02-22T13:38:26.140Z,15.75
2023-02-22T13:41:51.418Z,15.79
2023-02-22T13:45:16.710Z,15.8
2023-02-22T13:48:42.000Z,15.82
2023-02-22T13:52:07.356Z,15.84
2023-02-22T13:55:32.634Z,15.87
2023-02-22T13:58:57.992Z,15.86
2023-02-22T14:02:23.288Z,15.82
2023-02-22T14:05:48.694Z,15.75
2023-02-22T14:09:14.066Z,15.77
2023-02-22T14:12:39.552Z,15.82
2023-02-22T14:16:05.047Z,15.88
2023-02-22T14:19:30.247Z,15.91
2023-02-22T14:22:55.773Z,15.94
2023-02-22T14:26:21.711Z,15.93
2023-02-22T14:29:47.031Z,15.94
2023-02-22T15:04:29.226Z,13.5
2023-02-22T15:07:54.393Z,14.43
2023-02-22T15:11:19.695Z,14.62
2023-02-22T15:14:44.929Z,14.8
2023-02-22T15:18:10.180Z,14.92
2023-02-22T15:21:35.544Z,15.04
2023-02-22T15:25:00.886Z,15.11
2023-02-22T15:28:26.839Z,15.16
2023-02-22T15:31:52.215Z,15.21
2023-02-22T15:35:17.519Z,15.27
2023-02-22T15:38:42.885Z,15.31
2023-02-22T15:42:08.299Z,15.32
2023-02-22T15:45:33.988Z,15.31
2023-02-22T15:48:59.597Z,15.28
2023-02-22T15:52:25.261Z,15.26
2023-02-22T15:55:50.924Z,15.22
2023-02-22T15:59:16.546Z,15.2
2023-02-22T16:02:42.396Z,15.18
2023-02-22T16:06:07.844Z,15.15
2023-02-22T16:09:33.616Z,15.12
2023-02-22T16:12:59.302Z,15.07
2023-02-22T16:16:25.065Z,15
2023-02-22T16:19:50.734Z,14.92
2023-02-22T16:23:16.519Z,14.82
2023-02-22T16:26:42.271Z,14.7
2023-02-22T16:30:18.892Z,14.57
2023-02-22T16:33:33.665Z,14.46
2023-02-22T16:36:59.273Z,14.36
2023-02-22T16:40:25.295Z,14.26
2023-02-22T16:43:51.293Z,14.14
2023-02-22T16:47:16.821Z,14.03
2023-02-22T16:50:42.417Z,13.93
2023-02-22T16:54:08.244Z,13.83
2023-02-22T16:57:34.030Z,13.71
2023-02-22T17:00:59.738Z,13.61
2023-02-22T17:04:25.388Z,13.51
2023-02-22T17:07:50.644Z,13.41
2023-02-22T17:11:15.908Z,13.34
2023-02-22T17:14:41.195Z,13.23
2023-02-22T17:18:06.430Z,13.14
2023-02-22T17:21:31.840Z,13.02
2023-02-22T17:24:57.465Z,12.97
2023-02-22T17:28:23.958Z,12.92
2023-02-22T17:31:50.862Z,12.9
2023-02-22T17:35:17.822Z,12.86
2023-02-22T17:38:44.767Z,12.84
2023-02-22T17:42:11.777Z,12.79
2023-02-22T17:45:38.648Z,12.76
2023-02-22T17:49:06.146Z,12.72
2023-02-22T17:52:33.139Z,12.69
2023-02-22T17:56:00.219Z,12.67
2023-02-22T17:59:27.163Z,12.64
2023-02-22T18:02:54.071Z,12.63
2023-02-22T18:06:23.976Z,12.61
2023-02-22T18:09:47.966Z,12.56
2023-02-22T18:13:15.215Z,12.53
2023-02-22T18:16:42.233Z,12.47
2023-02-22T18:20:09.517Z,12.43
2023-02-22T18:23:36.386Z,12.4
2023-02-22T18:27:03.564Z,12.36
2023-02-22T18:30:30.922Z,12.33
2023-02-22T18:33:57.748Z,12.33
2023-02-22T18:37:24.626Z,12.28
2023-02-22T18:40:51.723Z,12.2
2023-02-22T18:44:19.699Z,12.09
2023-02-22T18:47:46.688Z,12.02
2023-02-22T18:51:13.947Z,12.01
2023-02-22T18:54:41.065Z,12.02
2023-02-22T18:58:08.415Z,12.02
2023-02-22T19:01:35.969Z,12.05
2023-02-22T19:05:03.615Z,12.11
2023-02-22T19:08:31.182Z,12.09
2023-02-22T19:11:58.599Z,12.08
2023-02-22T19:15:26.092Z,12.05
2023-02-22T19:18:53.365Z,12.03
2023-02-22T19:22:20.784Z,12.03
2023-02-22T19:25:48.211Z,11.99
2023-02-22T19:29:15.804Z,11.99
2023-02-22T19:32:43.510Z,11.99
2023-02-22T19:36:11.483Z,11.95
2023-02-22T19:39:39.190Z,11.92
2023-02-22T19:43:06.689Z,11.91
2023-02-22T19:46:33.905Z,11.89
2023-02-22T19:50:01.581Z,11.86
2023-02-22T19:53:28.993Z,11.84
2023-02-22T19:56:56.506Z,11.84
2023-02-22T20:00:24.066Z,11.82
2023-02-22T20:03:52.226Z,11.8
2023-02-22T20:07:20.316Z,11.8
2023-02-22T20:10:48.281Z,11.83
2023-02-22T20:14:16.446Z,11.88
2023-02-22T20:17:44.185Z,11.97
2023-02-22T20:21:12.254Z,12.07
2023-02-22T20:24:39.987Z,12.14
2023-02-22T20:28:08.344Z,12.18
2023-02-22T20:31:39.021Z,12.26
2023-02-22T20:35:07.412Z,12.31
2023-02-22T20:38:35.754Z,12.37
2023-02-22T20:42:03.686Z,12.41
2023-02-22T20:45:30.872Z,12.46
2023-02-22T20:48:58.884Z,12.48
2023-02-22T20:52:25.000Z,12.49
2023-02-22T20:55:50.747Z,12.5
2023-02-22T20:59:16.415Z,12.5
2023-02-22T21:02:42.176Z,12.49
2023-02-22T21:06:07.963Z,12.48
2023-02-22T21:09:33.646Z,12.45
2023-02-22T21:12:59.906Z,12.42
2023-02-22T21:16:25.331Z,12.41
2023-02-22T21:19:50.881Z,12.39
2023-02-22T21:23:16.723Z,12.37
2023-02-22T21:26:42.399Z,12.35
2023-02-22T21:30:08.106Z,12.33
2023-02-22T21:33:33.801Z,12.32
2023-02-22T21:36:59.634Z,12.32
2023-02-22T21:40:25.376Z,12.32
2023-02-22T21:43:51.090Z,12.31
2023-02-22T21:47:16.834Z,12.29
2023-02-22T21:50:42.591Z,12.28
2023-02-22T21:54:08.322Z,12.29
2023-02-22T21:57:34.125Z,12.33
2023-02-22T22:00:59.892Z,12.37
2023-02-22T22:04:25.603Z,12.39
2023-02-22T22:07:51.383Z,12.38
2023-02-22T22:11:17.286Z,12.35
2023-02-22T22:14:42.910Z,12.35
2023-02-22T22:18:08.651Z,12.34
2023-02-22T22:21:34.383Z,12.32
2023-02-22T22:25:00.144Z,12.3
2023-02-22T22:28:25.929Z,12.29
2023-02-22T22:31:51.815Z,12.26
2023-02-22T22:35:17.372Z,12.29
2023-02-22T22:38:43.143Z,12.29
2023-02-22T22:42:08.836Z,12.28
2023-02-22T22:45:34.485Z,12.28
2023-02-22T22:49:00.266Z,12.24
2023-02-22T22:52:25.975Z,12.21
2023-02-22T22:55:51.740Z,12.17
2023-02-22T22:59:17.437Z,12.13
2023-02-22T23:02:43.195Z,12.13
2023-02-22T23:06:09.061Z,12.13
2023-02-22T23:09:34.673Z,12.13
2023-02-22T23:13:00.338Z,12.11
2023-02-22T23:16:26.059Z,12.1
2023-02-22T23:19:51.762Z,12.1
2023-02-22T23:23:17.513Z,12.1
2023-02-22T23:26:43.190Z,12.11
2023-02-22T23:30:08.923Z,12.11
2023-02-22T23:33:34.591Z,12.11
2023-02-22T23:37:00.331Z,12.09
2023-02-22T23:40:26.110Z,12.08
2023-02-22T23:43:51.754Z,12.05
2023-02-22T23:47:17.441Z,12.03
2023-02-22T23:50:43.156Z,12
2023-02-22T23:54:09.005Z,11.98
2023-02-22T23:57:34.815Z,11.96
